createdAt,value
2018-11-05T00:01:38.811Z,28.37
2018-11-05T00:04:07.614Z,26.77
2018-11-05T00:06:36.681Z,26.57
2018-11-05T00:09:08.044Z,37.67
2018-11-05T00:11:37.332Z,31.17
2018-11-05T00:14:05.961Z,34.13
2018-11-05T00:16:34.852Z,27.03
2018-11-05T00:19:03.829Z,30.87
2018-11-05T00:21:32.824Z,32.33
2018-11-05T00:24:02.941Z,30.83
2018-11-05T00:26:31.947Z,25.40
2018-11-05T00:29:00.866Z,33.00
2018-11-05T00:31:29.770Z,27.83
2018-11-05T00:33:58.855Z,30.50
2018-11-05T00:36:27.457Z,33.40
2018-11-05T00:38:57.332Z,32.83
2018-11-05T00:41:27.003Z,34.53
2018-11-05T00:43:55.590Z,29.90
2018-11-05T00:46:24.067Z,29.43
2018-11-05T00:48:52.382Z,35.83
2018-11-05T00:51:21.822Z,30.77
2018-11-05T00:53:50.061Z,30.47
2018-11-05T00:56:18.292Z,31.57
2018-11-05T00:58:46.542Z,29.70
2018-11-05T01:01:14.733Z,33.00
2018-11-05T01:03:42.962Z,34.10
2018-11-05T01:06:11.183Z,28.80
2018-11-05T01:08:39.428Z,34.07
2018-11-05T01:11:07.662Z,36.53
2018-11-05T01:13:35.877Z,29.13
2018-11-05T01:16:04.184Z,36.97
2018-11-05T01:18:32.431Z,36.73
2018-11-05T01:21:00.622Z,34.93
2018-11-05T01:23:28.855Z,34.67
2018-11-05T01:25:57.130Z,38.60
2018-11-05T01:28:25.406Z,39.30
2018-11-05T01:30:53.684Z,39.43
2018-11-05T01:33:22.519Z,36.83
2018-11-05T01:35:50.785Z,37.27
2018-11-05T01:38:19.023Z,44.63
2018-11-05T01:40:47.234Z,36.07
2018-11-05T01:43:15.472Z,29.13
2018-11-05T01:45:43.681Z,39.13
2018-11-05T01:48:11.922Z,34.20
2018-11-05T01:50:40.198Z,35.93
2018-11-05T01:53:08.463Z,37.67
2018-11-05T01:55:36.717Z,41.20
2018-11-05T01:58:05.785Z,37.13
2018-11-05T02:00:34.101Z,40.90
2018-11-05T02:03:02.435Z,37.13
2018-11-05T02:05:30.655Z,40.67
2018-11-05T02:07:58.900Z,41.23
2018-11-05T02:10:27.174Z,35.00
2018-11-05T02:12:55.294Z,44.07
2018-11-05T02:15:23.570Z,61.07
2018-11-05T02:17:51.900Z,39.27
2018-11-05T02:20:20.119Z,35.27
2018-11-05T02:22:48.300Z,35.67
2018-11-05T02:25:16.580Z,40.43
2018-11-05T02:27:44.830Z,41.47
2018-11-05T02:30:16.078Z,40.77
2018-11-05T02:32:44.610Z,37.83
2018-11-05T02:35:13.742Z,31.10
2018-11-05T02:37:42.729Z,37.87
2018-11-05T02:40:14.480Z,41.13
2018-11-05T02:42:43.261Z,39.43
2018-11-05T02:45:12.924Z,40.10
2018-11-05T02:47:41.175Z,39.83
2018-11-05T02:50:10.708Z,37.13
2018-11-05T02:52:39.852Z,41.73
2018-11-05T02:55:08.267Z,36.17
2018-11-05T02:57:37.044Z,39.60
2018-11-05T03:00:07.563Z,33.73
2018-11-05T03:02:35.785Z,32.40
2018-11-05T03:05:04.618Z,31.83
2018-11-05T03:07:32.863Z,29.73
2018-11-05T03:10:01.045Z,31.37
2018-11-05T03:12:29.352Z,31.70
2018-11-05T03:14:57.562Z,23.87
2018-11-05T03:17:26.004Z,32.50
2018-11-05T03:19:54.224Z,27.83
2018-11-05T03:22:22.420Z,26.73
2018-11-05T03:24:50.655Z,25.37
2018-11-05T03:27:18.875Z,29.83
2018-11-05T03:29:47.060Z,26.43
2018-11-05T03:32:15.315Z,23.27
2018-11-05T03:34:43.599Z,28.53
2018-11-05T03:37:11.847Z,23.90
2018-11-05T03:39:40.044Z,23.63
2018-11-05T03:42:08.279Z,22.77
2018-11-05T03:44:36.462Z,25.63
2018-11-05T03:47:05.009Z,20.80
2018-11-05T03:49:33.215Z,26.13
2018-11-05T03:52:01.435Z,27.50
2018-11-05T03:54:29.659Z,24.80
2018-11-05T03:56:57.898Z,23.53
2018-11-05T03:59:26.088Z,26.83
2018-11-05T04:01:54.332Z,22.67
2018-11-05T04:04:22.539Z,27.60
2018-11-05T04:06:50.814Z,24.80
2018-11-05T04:09:19.068Z,24.37
2018-11-05T04:11:47.266Z,27.97
2018-11-05T04:14:15.523Z,26.73
2018-11-05T04:16:43.800Z,29.53
2018-11-05T04:19:11.996Z,27.90
2018-11-05T04:21:42.098Z,28.00
2018-11-05T04:24:11.263Z,30.30
2018-11-05T04:26:40.204Z,25.13
2018-11-05T04:29:08.659Z,27.73
2018-11-05T04:31:37.556Z,28.13
2018-11-05T04:34:05.852Z,31.53
2018-11-05T04:36:34.305Z,29.47
2018-11-05T04:39:02.518Z,40.17
2018-11-05T04:41:30.903Z,28.93
2018-11-05T04:43:59.078Z,29.90
2018-11-05T04:46:27.311Z,32.10
2018-11-05T04:48:55.633Z,27.50
2018-11-05T04:51:23.864Z,31.10
2018-11-05T04:53:52.057Z,35.67
2018-11-05T04:56:20.349Z,31.30
2018-11-05T04:58:48.572Z,28.63
2018-11-05T05:01:16.847Z,27.53
2018-11-05T05:03:45.072Z,26.57
2018-11-05T05:06:13.296Z,29.00
2018-11-05T05:08:41.627Z,32.07
2018-11-05T05:11:09.792Z,25.30
2018-11-05T05:13:38.019Z,30.40
2018-11-05T05:16:06.365Z,30.90
2018-11-05T05:18:34.512Z,34.67
2018-11-05T05:21:02.755Z,36.07
2018-11-05T05:23:31.004Z,40.33
2018-11-05T05:25:59.203Z,45.40
2018-11-05T05:28:27.398Z,31.60
2018-11-05T05:30:55.599Z,34.00
2018-11-05T05:33:23.859Z,34.93
2018-11-05T05:35:52.035Z,28.17
2018-11-05T05:38:20.263Z,34.37
2018-11-05T05:40:48.500Z,34.00
2018-11-05T05:43:16.761Z,35.37
2018-11-05T05:45:45.012Z,33.57
2018-11-05T05:48:13.235Z,35.90
2018-11-05T05:50:41.435Z,38.90
2018-11-05T05:53:09.642Z,40.23
2018-11-05T05:55:37.839Z,39.03
2018-11-05T05:58:06.197Z,43.10
2018-11-05T06:00:34.485Z,43.70
2018-11-05T06:03:02.715Z,41.60
2018-11-05T06:05:30.906Z,39.43
2018-11-05T06:07:59.116Z,43.50
2018-11-05T06:10:27.317Z,35.03
2018-11-05T06:12:55.569Z,37.83
2018-11-05T06:15:23.872Z,41.63
2018-11-05T06:17:52.084Z,39.80
2018-11-05T06:20:20.774Z,35.47
2018-11-05T06:22:49.715Z,41.03
2018-11-05T06:25:18.265Z,48.73
2018-11-05T06:27:46.561Z,46.73
2018-11-05T06:30:16.965Z,43.37
2018-11-05T06:32:46.121Z,43.27
2018-11-05T06:35:14.432Z,54.63
2018-11-05T06:37:42.760Z,38.07
2018-11-05T06:40:13.088Z,47.47
2018-11-05T06:42:41.792Z,55.70
2018-11-05T06:45:12.393Z,43.00
2018-11-05T06:47:41.718Z,47.77
2018-11-05T06:50:12.033Z,44.20
2018-11-05T06:52:40.768Z,54.27
2018-11-05T06:55:10.140Z,56.57
2018-11-05T06:57:38.808Z,47.23
2018-11-05T07:00:10.419Z,57.63
2018-11-05T07:02:38.778Z,56.63
2018-11-05T07:05:07.149Z,52.50
2018-11-05T07:07:35.544Z,49.47
2018-11-05T07:10:03.900Z,53.10
2018-11-05T07:12:32.099Z,46.57
2018-11-05T07:15:00.356Z,52.53
2018-11-05T07:17:28.583Z,52.93
2018-11-05T07:19:56.866Z,58.83
2018-11-05T07:22:25.147Z,44.83
2018-11-05T07:24:53.396Z,57.63
2018-11-05T07:27:21.905Z,60.10
2018-11-05T07:29:50.677Z,49.80
2018-11-05T07:32:19.230Z,48.37
2018-11-05T07:34:48.125Z,55.70
2018-11-05T07:37:16.549Z,53.97
2018-11-05T07:39:45.634Z,57.23
2018-11-05T07:42:15.291Z,52.97
2018-11-05T07:44:44.631Z,46.87
2018-11-05T07:47:13.652Z,45.40
2018-11-05T07:49:42.695Z,60.53
2018-11-05T07:52:11.838Z,50.70
2018-11-05T07:54:41.025Z,43.17
2018-11-05T07:57:09.970Z,47.87
2018-11-05T07:59:39.192Z,49.87
2018-11-05T08:02:07.911Z,68.67
2018-11-05T08:04:37.337Z,56.67
2018-11-05T08:07:05.619Z,51.17
2018-11-05T08:09:33.917Z,59.00
2018-11-05T08:12:02.147Z,51.10
2018-11-05T08:14:31.420Z,48.87
2018-11-05T08:17:00.205Z,51.30
2018-11-05T08:19:29.482Z,49.80
2018-11-05T08:21:57.983Z,47.10
2018-11-05T08:24:26.798Z,46.67
2018-11-05T08:26:56.478Z,42.33
2018-11-05T08:29:25.448Z,46.27
2018-11-05T08:31:55.128Z,45.87
2018-11-05T08:34:24.707Z,52.23
2018-11-05T08:36:53.337Z,48.37
2018-11-05T08:39:21.597Z,49.80
2018-11-05T08:41:49.820Z,61.40
2018-11-05T08:44:18.047Z,47.10
2018-11-05T08:46:46.255Z,44.87
2018-11-05T08:49:14.460Z,43.20
2018-11-05T08:51:43.135Z,48.73
2018-11-05T08:54:11.083Z,57.93
2018-11-05T08:56:39.287Z,45.07
2018-11-05T08:59:07.541Z,43.03
2018-11-05T09:01:37.423Z,41.60
2018-11-05T09:04:05.672Z,53.40
2018-11-05T09:06:34.443Z,52.90
2018-11-05T09:09:02.856Z,55.80
2018-11-05T09:11:31.540Z,47.63
2018-11-05T09:13:59.813Z,50.03
2018-11-05T09:16:28.724Z,59.53
2018-11-05T09:18:57.079Z,47.47
2018-11-05T09:21:25.423Z,45.93
2018-11-05T09:23:53.677Z,49.43
2018-11-05T09:26:21.931Z,61.10
2018-11-05T09:28:50.233Z,51.53
2018-11-05T09:31:18.550Z,52.77
2018-11-05T09:33:46.749Z,63.57
2018-11-05T09:36:15.121Z,50.40
2018-11-05T09:38:43.373Z,61.40
2018-11-05T09:41:11.612Z,65.03
2018-11-05T09:43:39.868Z,54.00
2018-11-05T09:46:08.139Z,43.23
2018-11-05T09:48:36.420Z,47.60
2018-11-05T09:51:04.771Z,42.13
2018-11-05T09:53:33.069Z,49.73
2018-11-05T09:56:01.391Z,45.63
2018-11-05T09:58:29.698Z,53.07
2018-11-05T10:00:58.189Z,48.60
2018-11-05T10:03:26.948Z,46.47
2018-11-05T10:05:54.996Z,38.17
2018-11-05T10:08:23.255Z,51.27
2018-11-05T10:10:51.495Z,42.83
2018-11-05T10:13:19.702Z,49.47
2018-11-05T10:15:47.935Z,44.90
2018-11-05T10:18:16.174Z,51.63
2018-11-05T10:20:44.477Z,42.07
2018-11-05T10:23:12.690Z,47.27
2018-11-05T10:25:41.011Z,45.07
2018-11-05T10:28:09.635Z,41.33
2018-11-05T10:30:37.906Z,47.77
2018-11-05T10:33:06.241Z,46.67
2018-11-05T10:35:40.594Z,45.50
2018-11-05T10:38:09.662Z,52.70
2018-11-05T10:40:39.219Z,45.67
2018-11-05T10:43:07.967Z,41.50
2018-11-05T10:45:36.633Z,36.30
2018-11-05T10:48:05.630Z,42.70
2018-11-05T10:50:34.255Z,38.87
2018-11-05T10:53:05.076Z,42.73
2018-11-05T10:55:33.911Z,35.87
2018-11-05T10:58:03.275Z,39.80
2018-11-05T11:00:37.492Z,36.07
2018-11-05T11:03:11.911Z,45.30
2018-11-05T11:05:41.058Z,36.00
2018-11-05T11:08:10.626Z,39.30
2018-11-05T11:10:40.232Z,39.83
2018-11-05T11:13:10.605Z,45.63
2018-11-05T11:15:39.356Z,49.60
2018-11-05T11:18:09.899Z,41.07
2018-11-05T11:20:39.113Z,45.30
2018-11-05T11:23:09.582Z,40.73
2018-11-05T11:25:38.552Z,45.90
2018-11-05T11:28:08.035Z,45.57
2018-11-05T11:30:39.375Z,46.77
2018-11-05T11:33:09.089Z,41.87
2018-11-05T11:35:37.819Z,44.33
2018-11-05T11:38:07.019Z,56.03
2018-11-05T11:40:35.629Z,37.40
2018-11-05T11:43:04.541Z,49.17
2018-11-05T11:45:33.619Z,44.07
2018-11-05T11:48:01.906Z,50.23
2018-11-05T11:50:30.206Z,48.60
2018-11-05T11:52:58.876Z,39.10
2018-11-05T11:55:27.203Z,44.00
2018-11-05T11:57:55.402Z,53.53
2018-11-05T12:00:25.049Z,44.83
2018-11-05T12:02:53.719Z,47.17
2018-11-05T12:05:22.235Z,40.53
2018-11-05T12:07:50.256Z,45.63
2018-11-05T12:10:20.190Z,55.67
2018-11-05T12:12:48.506Z,42.67
2018-11-05T12:15:17.690Z,47.83
2018-11-05T12:17:46.851Z,42.67
2018-11-05T12:20:17.256Z,55.10
2018-11-05T12:22:46.193Z,60.27
2018-11-05T12:25:14.468Z,43.87
2018-11-05T12:27:42.845Z,42.60
2018-11-05T12:30:15.354Z,39.37
2018-11-05T12:32:44.231Z,46.57
2018-11-05T12:35:13.031Z,52.73
2018-11-05T12:37:42.445Z,53.33
2018-11-05T12:40:13.567Z,48.40
2018-11-05T12:42:42.375Z,41.20
2018-11-05T12:45:11.196Z,37.33
2018-11-05T12:47:39.431Z,45.70
2018-11-05T12:50:10.011Z,40.07
2018-11-05T12:52:38.331Z,38.60
2018-11-05T12:55:07.523Z,58.67
2018-11-05T12:57:35.834Z,46.40
2018-11-05T13:00:05.342Z,41.60
2018-11-05T13:02:33.643Z,49.87
2018-11-05T13:05:01.892Z,47.70
2018-11-05T13:07:30.246Z,40.23
2018-11-05T13:09:58.493Z,60.37
2018-11-05T13:12:26.754Z,51.10
2018-11-05T13:14:55.005Z,45.00
2018-11-05T13:17:23.338Z,56.03
2018-11-05T13:19:51.635Z,60.00
2018-11-05T13:22:20.017Z,52.13
2018-11-05T13:24:48.289Z,35.63
2018-11-05T13:27:16.558Z,43.00
2018-11-05T13:29:44.875Z,47.80
2018-11-05T13:32:13.059Z,46.60
2018-11-05T13:34:41.317Z,39.40
2018-11-05T13:37:10.853Z,49.63
2018-11-05T13:39:39.772Z,43.57
2018-11-05T13:42:08.034Z,64.67
2018-11-05T13:44:36.482Z,49.87
2018-11-05T13:47:05.299Z,37.63
2018-11-05T13:49:33.429Z,54.63
2018-11-05T13:52:01.580Z,44.40
2018-11-05T13:54:30.069Z,41.10
2018-11-05T13:56:58.187Z,41.53
2018-11-05T13:59:26.481Z,49.87
2018-11-05T14:01:54.748Z,51.37
2018-11-05T14:04:23.033Z,46.47
2018-11-05T14:06:51.267Z,44.77
2018-11-05T14:09:19.519Z,53.53
2018-11-05T14:11:47.793Z,48.77
2018-11-05T14:14:16.136Z,51.37
2018-11-05T14:16:44.402Z,46.50
2018-11-05T14:19:12.679Z,62.17
2018-11-05T14:21:40.947Z,63.80
2018-11-05T14:24:09.221Z,52.27
2018-11-05T14:26:37.529Z,57.23
2018-11-05T14:29:05.972Z,50.07
2018-11-05T14:31:34.049Z,60.73
2018-11-05T14:34:02.341Z,60.67
2018-11-05T14:36:30.686Z,45.33
2018-11-05T14:38:58.960Z,57.97
2018-11-05T14:41:27.234Z,76.40
2018-11-05T14:43:55.520Z,54.20
2018-11-05T14:46:23.956Z,58.00
2018-11-05T14:48:52.216Z,54.00
2018-11-05T14:51:20.548Z,56.37
2018-11-05T14:53:48.753Z,39.67
2018-11-05T14:56:18.019Z,51.57
2018-11-05T14:58:46.340Z,54.47
2018-11-05T15:01:14.623Z,55.93
2018-11-05T15:03:42.948Z,61.17
2018-11-05T15:06:11.208Z,43.67
2018-11-05T15:08:39.482Z,54.60
2018-11-05T15:11:07.764Z,55.47
2018-11-05T15:13:36.078Z,58.00
2018-11-05T15:16:04.343Z,64.90
2018-11-05T15:18:32.790Z,56.83
2018-11-05T15:21:00.884Z,56.80
2018-11-05T15:23:29.166Z,54.40
2018-11-05T15:25:57.405Z,49.63
2018-11-05T15:28:25.733Z,56.43
2018-11-05T15:30:54.102Z,51.63
2018-11-05T15:33:22.399Z,46.87
2018-11-05T15:35:50.683Z,47.80
2018-11-05T15:38:19.030Z,61.93
2018-11-05T15:40:47.268Z,68.07
2018-11-05T15:43:15.467Z,48.87
2018-11-05T15:45:43.704Z,51.60
2018-11-05T15:48:11.940Z,45.57
2018-11-05T15:50:40.806Z,66.60
2018-11-05T15:53:09.792Z,51.33
2018-11-05T15:55:37.868Z,70.33
2018-11-05T15:58:06.157Z,54.57
2018-11-05T16:00:34.387Z,58.43
2018-11-05T16:03:02.940Z,57.20
2018-11-05T16:05:31.220Z,52.27
2018-11-05T16:07:59.469Z,49.90
2018-11-05T16:10:27.669Z,56.13
2018-11-05T16:12:55.956Z,49.03
2018-11-05T16:15:24.252Z,53.53
2018-11-05T16:17:52.472Z,56.33
2018-11-05T16:20:21.891Z,59.03
2018-11-05T16:22:50.909Z,52.13
2018-11-05T16:25:19.169Z,50.40
2018-11-05T16:27:47.407Z,53.37
2018-11-05T16:30:17.008Z,57.50
2018-11-05T16:32:45.771Z,55.63
2018-11-05T16:35:14.040Z,45.50
2018-11-05T16:37:42.275Z,54.23
2018-11-05T16:40:12.785Z,58.03
2018-11-05T16:42:41.299Z,40.33
2018-11-05T16:45:10.313Z,43.43
2018-11-05T16:47:39.211Z,50.20
2018-11-05T16:50:11.276Z,43.90
2018-11-05T16:52:39.544Z,45.07
2018-11-05T16:55:09.422Z,51.77
2018-11-05T16:57:37.628Z,53.07
2018-11-05T17:00:06.806Z,46.20
2018-11-05T17:02:35.350Z,53.30
2018-11-05T17:05:03.456Z,52.20
2018-11-05T17:07:31.722Z,43.27
2018-11-05T17:10:00.072Z,46.83
2018-11-05T17:12:28.413Z,52.77
2018-11-05T17:14:56.659Z,46.67
2018-11-05T17:17:24.982Z,52.40
2018-11-05T17:19:53.250Z,53.50
2018-11-05T17:22:21.691Z,60.67
2018-11-05T17:24:50.485Z,52.33
2018-11-05T17:27:18.811Z,45.03
2018-11-05T17:29:47.063Z,50.53
2018-11-05T17:32:15.486Z,60.37
2018-11-05T17:34:43.943Z,51.80
2018-11-05T17:37:12.779Z,47.53
2018-11-05T17:39:41.073Z,59.33
2018-11-05T17:42:09.326Z,52.63
2018-11-05T17:44:37.663Z,53.23
2018-11-05T17:47:06.164Z,56.43
2018-11-05T17:49:34.471Z,51.93
2018-11-05T17:52:02.820Z,60.63
2018-11-05T17:54:31.198Z,66.13
2018-11-05T17:56:59.575Z,52.23
2018-11-05T17:59:27.780Z,54.63
2018-11-05T18:01:56.131Z,56.10
2018-11-05T18:04:24.470Z,47.27
2018-11-05T18:06:52.884Z,57.07
2018-11-05T18:09:21.554Z,62.83
2018-11-05T18:11:49.835Z,50.97
2018-11-05T18:14:18.141Z,50.87
2018-11-05T18:16:46.618Z,58.50
2018-11-05T18:19:14.912Z,46.17
2018-11-05T18:21:43.165Z,55.30
2018-11-05T18:24:11.458Z,67.80
2018-11-05T18:26:39.688Z,69.60
2018-11-05T18:29:07.924Z,62.70
2018-11-05T18:31:36.235Z,58.67
2018-11-05T18:34:04.664Z,60.10
2018-11-05T18:36:33.015Z,70.93
2018-11-05T18:39:01.515Z,55.90
2018-11-05T18:41:30.335Z,65.37
2018-11-05T18:43:58.759Z,67.47
2018-11-05T18:46:27.047Z,65.00
2018-11-05T18:48:56.345Z,55.60
2018-11-05T18:51:24.641Z,64.00
2018-11-05T18:53:52.971Z,57.67
2018-11-05T18:56:21.237Z,67.83
2018-11-05T18:58:49.480Z,53.07
2018-11-05T19:01:17.701Z,59.57
2018-11-05T19:03:46.030Z,59.37
2018-11-05T19:06:14.150Z,61.80
2018-11-05T19:08:42.415Z,66.67
2018-11-05T19:11:11.677Z,78.50
2018-11-05T19:13:39.963Z,61.23
2018-11-05T19:16:08.217Z,65.20
2018-11-05T19:18:36.516Z,78.10
2018-11-05T19:21:05.243Z,65.37
2018-11-05T19:23:33.628Z,75.30
2018-11-05T19:26:01.756Z,68.73
2018-11-05T19:28:30.060Z,73.23
2018-11-05T19:30:58.352Z,90.17
2018-11-05T19:33:26.686Z,63.67
2018-11-05T19:35:54.843Z,63.47
2018-11-05T19:38:23.138Z,65.73
2018-11-05T19:40:51.386Z,79.33
2018-11-05T19:43:19.654Z,57.27
2018-11-05T19:45:47.849Z,77.87
2018-11-05T19:48:16.560Z,64.83
2018-11-05T19:50:44.843Z,69.93
2018-11-05T19:53:13.175Z,61.47
2018-11-05T19:55:41.494Z,67.33
2018-11-05T19:58:09.815Z,68.87
2018-11-05T20:00:38.214Z,75.03
2018-11-05T20:03:06.615Z,79.80
2018-11-05T20:05:34.964Z,68.20
2018-11-05T20:08:03.173Z,64.27
2018-11-05T20:10:31.439Z,75.27
2018-11-05T20:12:59.712Z,63.00
2018-11-05T20:15:27.997Z,69.30
2018-11-05T20:17:56.729Z,67.03
2018-11-05T20:20:25.756Z,78.03
2018-11-05T20:22:54.097Z,89.87
2018-11-05T20:25:22.615Z,89.23
2018-11-05T20:27:51.369Z,72.43
2018-11-05T20:30:27.519Z,85.53
2018-11-05T20:32:56.800Z,90.67
2018-11-05T20:35:24.836Z,78.90
2018-11-05T20:37:53.178Z,85.73
2018-11-05T20:40:22.181Z,91.83
2018-11-05T20:42:51.193Z,66.73
2018-11-05T20:45:21.041Z,71.03
2018-11-05T20:47:49.447Z,82.37
2018-11-05T20:50:18.395Z,81.63
2018-11-05T20:52:46.667Z,86.63
2018-11-05T20:55:16.343Z,71.37
2018-11-05T20:57:44.767Z,93.67
2018-11-05T21:00:14.491Z,86.90
2018-11-05T21:02:43.179Z,80.70
2018-11-05T21:05:13.168Z,76.17
2018-11-05T21:07:43.763Z,76.87
2018-11-05T21:10:16.109Z,87.90
2018-11-05T21:12:46.322Z,79.70
2018-11-05T21:15:19.111Z,77.27
2018-11-05T21:17:49.779Z,81.97
2018-11-05T21:20:20.360Z,75.27
2018-11-05T21:22:51.680Z,86.30
2018-11-05T21:25:22.815Z,76.70
2018-11-05T21:27:52.462Z,78.57
2018-11-05T21:30:22.675Z,82.57
2018-11-05T21:32:51.641Z,82.77
2018-11-05T21:35:22.740Z,85.27
2018-11-05T21:37:52.573Z,83.57
2018-11-05T21:40:24.210Z,72.70
2018-11-05T21:42:53.606Z,84.87
2018-11-05T21:45:24.845Z,84.93
2018-11-05T21:47:54.294Z,87.30
2018-11-05T21:50:25.259Z,80.00
2018-11-05T21:52:54.996Z,78.63
2018-11-05T21:55:26.493Z,90.07
2018-11-05T21:57:54.900Z,99.87
2018-11-05T22:00:24.514Z,78.87
2018-11-05T22:03:00.227Z,88.73
2018-11-05T22:05:28.511Z,86.70
2018-11-05T22:07:56.753Z,79.23
2018-11-05T22:10:25.068Z,87.03
2018-11-05T22:12:53.301Z,87.00
2018-11-05T22:15:21.566Z,83.77
2018-11-05T22:17:49.892Z,81.10
2018-11-05T22:20:18.119Z,87.93
2018-11-05T22:22:46.439Z,75.03
2018-11-05T22:25:14.672Z,80.40
2018-11-05T22:27:43.047Z,84.33
2018-11-05T22:30:11.782Z,81.20
2018-11-05T22:32:40.049Z,78.43
2018-11-05T22:35:08.342Z,86.80
2018-11-05T22:37:36.811Z,85.03
2018-11-05T22:40:07.699Z,81.33
2018-11-05T22:42:35.935Z,92.87
2018-11-05T22:45:05.009Z,80.00
2018-11-05T22:47:33.533Z,74.50
2018-11-05T22:50:02.024Z,71.90
2018-11-05T22:52:30.559Z,86.10
2018-11-05T22:54:59.169Z,75.40
2018-11-05T22:57:27.731Z,81.47
2018-11-05T22:59:57.188Z,77.47
2018-11-05T23:02:27.112Z,87.93
2018-11-05T23:04:57.892Z,85.43
2018-11-05T23:07:27.841Z,94.53
2018-11-05T23:09:58.370Z,80.97
2018-11-05T23:12:27.840Z,83.07
2018-11-05T23:14:57.179Z,99.80
2018-11-05T23:17:26.721Z,82.07
2018-11-05T23:19:57.192Z,84.03
2018-11-05T23:22:26.813Z,89.47
2018-11-05T23:24:56.301Z,88.50
2018-11-05T23:27:26.589Z,80.63
2018-11-05T23:29:56.234Z,85.43
2018-11-05T23:32:26.983Z,87.33
2018-11-05T23:34:56.429Z,87.50
2018-11-05T23:37:25.698Z,85.37
2018-11-05T23:39:54.882Z,87.43
2018-11-05T23:42:24.485Z,81.10
2018-11-05T23:44:53.858Z,84.07
2018-11-05T23:47:26.956Z,89.37
2018-11-05T23:49:56.497Z,78.00
2018-11-05T23:52:26.341Z,81.13
2018-11-05T23:54:55.668Z,93.63
2018-11-05T23:57:24.014Z,87.47
2018-11-05T23:59:52.291Z,92.23
